Terminal Aerodrome Forecast
Issued by NWS

Home | Current Version | Previous Version | Graphics & Text | Print | Product List | Glossary On
Versions: 1 2 3 4 5 6 7 8 9 10 11 12 13 14 15 16 17 18 19 20 21 22 23 24 25 26 27
000
FTUS43 KLOT 182333
TAFDPA
TAF
KDPA 182333Z 1900/1924 16015G22KT 6SM BR BKN250 WS020/20045KT
     FM190600 18012KT 6SM BR SCT020 BKN040
     FM190900 19008KT 3SM BR SCT008 OVC012
      TEMPO 1910/1913 3/4SM BR SCT003 OVC007
     FM191300 15006KT 3/4SM -SHRA BR OVC003
      TEMPO 1913/1917 1/2SM -DZ FG OVC002
     FM192000 20014G21KT 1SM -RA BR OVC003=

USA.gov is the U.S. government's official web portal to all federal, state and local government web resources and services.